Upper Makefield, Pennsylvania
Current Conditions -  °F | °C
As of 12:53 PM on Thursday 23 Oct 2014 (Local Time) from KTTN Reporting Station
Light Rain Light Rain  
Wind Chill: 52°   Ceiling: 3600
Heat Index: 52°   Visibility: 10mi
Dew Point: 47°   Wind: 9mph
Humidity: 83%   Direction: 320°NW
Pressure: 29.74"   Gusts: NA
Location:  40.2672°N, 74.9516°W
Report Text: KTTN 231653Z 32008KT 10SM -RA FEW020 BKN036 OVC043 11/08 A2974 RMK AO2 SLP066 P0001 T01110083
Loading
Personal Weather Stations






























Interactive Weather Map
Tropical Storm Tracking
New forecast layout! Learn more

10-Day Weather Forecast

Advertisements
Track Severe Weather on mobile